Disclaimer

Please do not use the information listed here in-flight or in-navigation, as they are not provided to us by the airports but are provided by volunteers, so they might be outdated.

Search


Regions


Airport information page

Radio informations:
Tower (TWR) - 118.125 MHz
CARDIFF ATIS - 132.475 MHz
Ground (GND) - 241.125 MHz
Automatic Terminal Information Service (ATIS) - 340.45 MHz
Approach (APP) - 126.625 MHz

Airport informations:
Latitude: 51° 24' 17.32" N
Longitude: 003° 26' 08.70" W
Elevation: 163 feet - 50 meters
Operating hours: Remarks
Operating agency: Military
Timezone: UTC 0(+1DT) - Last Sunday in March to last Sunday in October
Fuel: N/A

Runway information:
08/26 - 5988 x 141 feet< - >1825 x 43 meters

Recent METARs:
EGDX 171850Z AUTO 07016KT 8000 HZ NCD 08/06 Q1023
EGDX 171950Z AUTO 07019KT 8000 HZ NCD 08/06 Q1023
EGDX 171950Z AUTO 07019KT 8000 HZ NCD 08/06 Q1023

Airport on the map: